createdAt,value
2022-07-29T00:01:39.138Z,70.00
2022-07-29T00:04:27.171Z,69.90
2022-07-29T00:07:15.071Z,69.50
2022-07-29T00:10:02.803Z,68.90
2022-07-29T00:12:50.669Z,68.50
2022-07-29T00:15:38.646Z,69.10
2022-07-29T00:18:26.307Z,71.60
2022-07-29T00:21:14.280Z,71.80
2022-07-29T00:24:02.000Z,71.60
2022-07-29T00:26:49.693Z,70.60
2022-07-29T00:29:37.346Z,69.40
2022-07-29T00:32:25.024Z,70.20
2022-07-29T00:35:31.327Z,71.40
2022-07-29T00:38:22.036Z,71.00
2022-07-29T00:41:09.668Z,70.20
2022-07-29T00:43:57.350Z,71.10
2022-07-29T00:46:45.212Z,72.70
2022-07-29T00:49:33.925Z,72.60
2022-07-29T00:52:22.036Z,73.10
2022-07-29T00:55:15.094Z,76.00
2022-07-29T00:58:02.887Z,76.10
2022-07-29T01:00:50.777Z,74.50
2022-07-29T01:03:38.538Z,74.40
2022-07-29T01:06:26.521Z,74.30
2022-07-29T01:09:14.932Z,73.80
2022-07-29T01:12:03.973Z,73.00
2022-07-29T01:14:53.211Z,72.20
2022-07-29T01:18:11.115Z,73.10
2022-07-29T01:21:20.838Z,73.80
2022-07-29T01:24:31.180Z,74.80
2022-07-29T01:27:18.918Z,73.90
2022-07-29T01:30:09.772Z,73.10
2022-07-29T01:33:04.354Z,72.10
2022-07-29T01:35:52.327Z,71.50
2022-07-29T01:39:10.087Z,71.90
2022-07-29T01:41:59.792Z,71.70
2022-07-29T01:45:09.401Z,70.30
2022-07-29T01:48:48.343Z,70.80
2022-07-29T01:51:50.791Z,74.10
2022-07-29T01:55:04.090Z,76.20
2022-07-29T01:57:52.707Z,75.70
2022-07-29T02:00:43.631Z,75.30
2022-07-29T02:03:32.908Z,75.40
2022-07-29T02:06:23.167Z,75.80
2022-07-29T02:09:13.532Z,74.90
2022-07-29T02:12:03.627Z,74.30
2022-07-29T02:14:54.644Z,74.20
2022-07-29T02:17:56.320Z,74.40
2022-07-29T02:20:51.848Z,73.50
2022-07-29T02:23:50.051Z,72.80
2022-07-29T02:26:41.324Z,73.20
2022-07-29T02:29:32.900Z,75.80
2022-07-29T02:32:22.512Z,76.00
2022-07-29T02:35:11.725Z,75.20
2022-07-29T02:38:18.172Z,75.00
2022-07-29T02:41:14.623Z,78.60
2022-07-29T02:44:11.612Z,79.90
2022-07-29T02:47:22.599Z,78.20
2022-07-29T02:50:16.432Z,76.40
2022-07-29T02:53:15.587Z,78.20
2022-07-29T02:56:08.642Z,80.00
2022-07-29T02:58:59.823Z,79.70
2022-07-29T03:01:48.251Z,77.70
2022-07-29T03:04:36.650Z,76.70
2022-07-29T03:07:24.551Z,76.30
2022-07-29T03:10:13.849Z,76.20
2022-07-29T03:13:02.208Z,76.10
2022-07-29T03:15:51.077Z,76.50
2022-07-29T03:18:39.396Z,77.00
2022-07-29T03:21:27.175Z,75.80
2022-07-29T03:24:35.695Z,75.30
2022-07-29T03:27:23.545Z,74.40
2022-07-29T03:30:12.565Z,78.60
2022-07-29T03:33:13.258Z,79.40
2022-07-29T03:36:03.455Z,78.80
2022-07-29T03:38:51.607Z,77.60
2022-07-29T03:41:42.800Z,76.80
2022-07-29T03:44:32.010Z,76.60
2022-07-29T03:47:35.527Z,77.60
2022-07-29T03:50:33.701Z,77.70
2022-07-29T03:53:21.706Z,77.90
2022-07-29T04:00:09.724Z,76.40
2022-07-29T04:02:58.481Z,76.60
2022-07-29T04:05:46.194Z,77.00
2022-07-29T04:08:35.433Z,78.50
2022-07-29T04:11:23.084Z,80.20
2022-07-29T04:14:10.811Z,78.70
2022-07-29T04:16:58.487Z,77.30
2022-07-29T04:19:46.258Z,76.80
2022-07-29T04:22:59.421Z,76.00
2022-07-29T04:25:47.128Z,76.10
2022-07-29T04:28:34.906Z,74.70
2022-07-29T04:31:25.700Z,75.70
2022-07-29T04:34:15.065Z,77.00
2022-07-29T04:37:02.929Z,76.30
2022-07-29T04:39:50.568Z,75.50
2022-07-29T04:42:46.204Z,75.30
2022-07-29T04:45:34.666Z,74.60
2022-07-29T04:48:28.197Z,73.90
2022-07-29T04:51:17.281Z,73.90
2022-07-29T04:54:04.993Z,74.00
2022-07-29T04:56:52.661Z,73.80
2022-07-29T04:59:40.294Z,73.20
2022-07-29T05:02:28.075Z,73.20
2022-07-29T05:05:15.720Z,72.90
2022-07-29T05:08:03.437Z,72.90
2022-07-29T05:10:51.081Z,72.40
2022-07-29T05:13:45.285Z,72.90
2022-07-29T05:16:34.585Z,72.50
2022-07-29T05:19:22.280Z,71.80
2022-07-29T05:22:09.955Z,71.40
2022-07-29T05:24:57.738Z,71.20
2022-07-29T05:27:52.998Z,71.40
2022-07-29T05:30:41.013Z,71.40
2022-07-29T05:33:34.793Z,71.00
2022-07-29T05:36:27.526Z,70.40
2022-07-29T05:39:57.245Z,69.90
2022-07-29T05:42:46.902Z,70.40
2022-07-29T05:45:34.653Z,70.80
2022-07-29T05:48:37.230Z,71.50
2022-07-29T05:51:24.906Z,71.40
2022-07-29T05:54:12.763Z,71.00
2022-07-29T05:57:00.587Z,70.70
2022-07-29T05:59:49.314Z,71.50
2022-07-29T06:02:36.943Z,71.90
2022-07-29T06:05:24.851Z,72.10
2022-07-29T06:08:12.599Z,71.80
2022-07-29T06:11:00.764Z,71.00
2022-07-29T06:13:48.567Z,69.70
2022-07-29T06:16:36.343Z,69.10
2022-07-29T06:19:24.025Z,68.20
2022-07-29T06:22:12.117Z,67.90
2022-07-29T06:24:59.753Z,67.90
2022-07-29T06:27:47.435Z,67.50
2022-07-29T06:30:35.301Z,67.30
2022-07-29T06:33:23.091Z,66.50
2022-07-29T06:36:10.952Z,66.10
2022-07-29T06:39:00.041Z,66.10
2022-07-29T06:41:51.625Z,64.70
2022-07-29T06:44:39.270Z,65.60
2022-07-29T06:47:26.949Z,65.50
2022-07-29T06:50:15.199Z,65.10
2022-07-29T06:53:03.130Z,65.20
2022-07-29T06:55:50.799Z,65.40
2022-07-29T06:58:38.421Z,65.10
2022-07-29T07:01:26.214Z,65.00
2022-07-29T07:04:15.106Z,65.00
2022-07-29T07:07:03.049Z,65.00
2022-07-29T07:09:50.750Z,64.60
2022-07-29T07:12:38.523Z,64.20
2022-07-29T07:15:39.436Z,64.00
2022-07-29T07:18:27.740Z,63.80
2022-07-29T07:21:19.028Z,64.00
2022-07-29T07:24:07.721Z,64.00
2022-07-29T07:26:55.331Z,63.20
2022-07-29T07:29:44.325Z,63.00
2022-07-29T07:32:32.406Z,62.50
2022-07-29T07:35:20.789Z,62.10
2022-07-29T07:38:33.616Z,62.20
2022-07-29T07:45:38.693Z,60.30
2022-07-29T07:48:26.571Z,60.20
2022-07-29T07:51:14.448Z,60.90
2022-07-29T07:54:03.152Z,60.50
2022-07-29T07:56:52.989Z,60.60
2022-07-29T07:59:41.530Z,59.90
2022-07-29T08:02:29.226Z,59.20
2022-07-29T08:05:19.814Z,59.90
2022-07-29T08:08:08.037Z,59.20
2022-07-29T08:10:58.415Z,58.20
2022-07-29T08:13:46.135Z,58.90
2022-07-29T08:16:33.915Z,58.00
2022-07-29T08:19:21.559Z,58.30
2022-07-29T08:22:09.133Z,57.60
2022-07-29T08:24:57.364Z,57.10
2022-07-29T08:27:44.957Z,56.40
2022-07-29T08:30:33.497Z,57.20
2022-07-29T08:33:21.171Z,57.70
2022-07-29T08:36:09.089Z,57.50
2022-07-29T08:38:59.588Z,57.10
2022-07-29T08:41:56.648Z,56.80
2022-07-29T08:44:45.769Z,55.30
2022-07-29T08:47:37.292Z,53.10
2022-07-29T08:50:24.984Z,54.00
2022-07-29T08:53:15.047Z,53.00
2022-07-29T08:56:02.990Z,52.70
2022-07-29T08:58:52.030Z,52.90
2022-07-29T09:01:42.677Z,52.70
2022-07-29T09:04:35.596Z,52.50
2022-07-29T09:07:23.296Z,51.80
2022-07-29T09:10:11.467Z,52.90
2022-07-29T09:12:59.223Z,52.30
2022-07-29T09:15:47.018Z,53.50
2022-07-29T09:18:37.091Z,52.80
2022-07-29T09:21:43.416Z,50.50
2022-07-29T09:24:43.545Z,50.60
2022-07-29T09:27:31.114Z,49.10
2022-07-29T09:30:28.309Z,48.90
2022-07-29T09:33:20.289Z,49.20
2022-07-29T09:36:10.110Z,49.20
2022-07-29T09:39:01.801Z,49.00
2022-07-29T09:41:55.086Z,48.80
2022-07-29T09:44:45.403Z,48.50
2022-07-29T09:47:48.111Z,49.00
2022-07-29T09:50:43.713Z,48.30
2022-07-29T09:53:37.455Z,47.00
2022-07-29T09:56:42.977Z,47.10
2022-07-29T09:59:30.704Z,47.20
2022-07-29T10:02:23.741Z,46.00
2022-07-29T10:05:38.016Z,45.70
2022-07-29T10:08:28.488Z,46.20
2022-07-29T10:11:18.397Z,46.60
2022-07-29T10:14:06.313Z,47.00
2022-07-29T10:16:55.134Z,46.80
2022-07-29T10:19:43.591Z,45.90
2022-07-29T10:22:52.050Z,44.70
2022-07-29T10:25:38.965Z,44.00
2022-07-29T10:28:29.683Z,44.30
2022-07-29T10:31:26.878Z,43.30
2022-07-29T10:34:50.282Z,42.60
2022-07-29T10:38:05.455Z,41.50
2022-07-29T10:41:32.018Z,42.80
2022-07-29T10:44:24.125Z,41.20
2022-07-29T10:47:28.008Z,41.20
2022-07-29T10:50:17.209Z,40.50
2022-07-29T10:53:09.005Z,41.70
2022-07-29T10:59:22.728Z,41.40
2022-07-29T11:02:41.975Z,41.60
2022-07-29T11:05:40.851Z,40.70
2022-07-29T11:08:29.368Z,40.90
2022-07-29T11:11:29.684Z,39.80
2022-07-29T11:14:18.854Z,40.10
2022-07-29T11:17:09.084Z,39.50
2022-07-29T11:20:37.990Z,39.80
2022-07-29T11:23:33.356Z,40.30
2022-07-29T11:26:24.858Z,41.80
2022-07-29T11:29:20.780Z,42.20
2022-07-29T11:32:18.401Z,43.60
2022-07-29T11:35:19.261Z,45.40
2022-07-29T11:38:31.915Z,45.90
2022-07-29T11:41:27.313Z,44.10
2022-07-29T11:44:18.062Z,43.10
2022-07-29T11:47:06.394Z,44.80
2022-07-29T11:49:58.157Z,44.60
2022-07-29T11:52:50.073Z,43.50
2022-07-29T11:55:51.191Z,42.40
2022-07-29T11:58:40.127Z,43.00
2022-07-29T12:01:28.453Z,42.90
2022-07-29T12:04:16.038Z,43.10
2022-07-29T12:10:00.982Z,40.90
2022-07-29T12:12:53.894Z,40.50
2022-07-29T12:15:45.996Z,41.70
2022-07-29T12:18:34.444Z,40.40
2022-07-29T12:21:25.712Z,41.10
2022-07-29T12:24:13.594Z,41.40
2022-07-29T12:27:02.371Z,42.50
2022-07-29T12:30:04.259Z,41.90
2022-07-29T12:32:51.907Z,43.00
2022-07-29T12:35:40.295Z,44.30
2022-07-29T12:38:28.380Z,45.10
2022-07-29T12:41:16.106Z,44.50
2022-07-29T12:44:03.869Z,44.70
2022-07-29T12:47:06.774Z,45.80
2022-07-29T12:50:21.146Z,45.40
2022-07-29T12:53:12.992Z,45.80
2022-07-29T12:56:15.527Z,46.80
2022-07-29T12:59:14.692Z,47.00
2022-07-29T13:02:02.406Z,46.90
2022-07-29T13:04:58.995Z,47.10
2022-07-29T13:07:55.051Z,47.50
2022-07-29T13:10:44.642Z,47.70
2022-07-29T13:13:32.424Z,47.50
2022-07-29T13:16:20.235Z,47.70
2022-07-29T13:19:10.568Z,47.90
2022-07-29T13:21:58.602Z,47.20
2022-07-29T13:24:58.119Z,47.50
2022-07-29T13:27:46.995Z,47.90
2022-07-29T13:30:34.827Z,48.70
2022-07-29T13:33:22.528Z,47.60
2022-07-29T13:36:10.207Z,48.80
2022-07-29T13:38:57.880Z,48.30
2022-07-29T13:41:45.518Z,47.50
2022-07-29T13:44:33.155Z,47.40
2022-07-29T13:47:21.572Z,48.20
2022-07-29T13:50:11.396Z,48.80
2022-07-29T13:52:59.076Z,49.50
2022-07-29T13:55:46.754Z,48.90
2022-07-29T13:58:35.989Z,49.20
2022-07-29T14:01:24.556Z,49.00
2022-07-29T14:04:12.592Z,48.60
2022-07-29T14:07:00.613Z,49.40
2022-07-29T14:09:51.992Z,49.70
2022-07-29T14:12:39.690Z,49.40
2022-07-29T14:15:27.361Z,50.00
2022-07-29T14:18:15.135Z,50.50
2022-07-29T14:21:03.453Z,50.30
2022-07-29T14:23:51.754Z,49.60
2022-07-29T14:26:39.390Z,50.10
2022-07-29T14:29:37.007Z,50.60
2022-07-29T14:32:26.126Z,50.10
2022-07-29T14:35:13.898Z,50.50
2022-07-29T14:38:01.649Z,50.40
2022-07-29T14:40:50.915Z,50.00
2022-07-29T14:43:38.903Z,49.70
2022-07-29T14:46:26.622Z,50.10
2022-07-29T14:49:14.330Z,50.40
2022-07-29T14:52:02.248Z,50.30
2022-07-29T14:54:50.180Z,50.30
2022-07-29T14:57:37.842Z,50.70
2022-07-29T15:00:26.006Z,50.70
2022-07-29T15:03:14.091Z,51.40
2022-07-29T15:06:11.721Z,51.10
2022-07-29T15:08:59.435Z,51.40
2022-07-29T15:11:47.103Z,51.20
2022-07-29T15:14:35.180Z,51.50
2022-07-29T15:17:22.830Z,51.70
2022-07-29T15:20:11.491Z,51.50
2022-07-29T15:22:59.233Z,51.50
2022-07-29T15:25:46.899Z,51.80
2022-07-29T15:28:35.014Z,51.80
2022-07-29T15:31:22.991Z,51.90
2022-07-29T15:34:10.880Z,51.70
2022-07-29T15:36:58.679Z,52.40
2022-07-29T15:39:46.314Z,52.10
2022-07-29T15:42:37.460Z,52.20
2022-07-29T15:45:25.445Z,52.50
2022-07-29T15:48:14.903Z,53.10
2022-07-29T15:51:04.564Z,53.40
2022-07-29T15:53:53.462Z,53.50
2022-07-29T15:56:41.453Z,53.40
2022-07-29T15:59:29.754Z,53.80
2022-07-29T16:02:17.902Z,53.70
2022-07-29T16:05:09.462Z,54.00
2022-07-29T16:07:57.382Z,54.40
2022-07-29T16:10:45.019Z,54.30
2022-07-29T16:13:32.641Z,54.00
2022-07-29T16:16:20.488Z,54.90
2022-07-29T16:19:09.714Z,54.30
2022-07-29T16:21:59.903Z,54.10
2022-07-29T16:24:47.807Z,54.80
2022-07-29T16:27:37.873Z,54.60
2022-07-29T16:30:26.186Z,54.90
2022-07-29T16:33:13.972Z,55.00
2022-07-29T16:36:02.576Z,54.80
2022-07-29T16:38:50.460Z,55.20
2022-07-29T16:41:38.161Z,55.70
2022-07-29T16:44:25.822Z,55.90
2022-07-29T16:47:13.758Z,55.90
2022-07-29T16:50:01.417Z,55.80
2022-07-29T16:52:49.111Z,56.00
2022-07-29T16:55:36.911Z,55.70
2022-07-29T16:58:24.599Z,56.10
2022-07-29T17:01:12.940Z,55.90
2022-07-29T17:04:06.434Z,55.80
2022-07-29T17:06:54.188Z,55.50
2022-07-29T17:09:41.877Z,55.50
2022-07-29T17:12:31.142Z,55.90
2022-07-29T17:15:23.077Z,56.20
2022-07-29T17:18:12.267Z,56.00
2022-07-29T17:21:00.796Z,56.00
2022-07-29T17:23:48.948Z,56.50
2022-07-29T17:26:36.663Z,56.30
2022-07-29T17:29:24.669Z,56.50
2022-07-29T17:32:13.199Z,56.90
2022-07-29T17:35:00.832Z,56.90
2022-07-29T17:37:48.474Z,57.40
2022-07-29T17:40:36.221Z,57.80
2022-07-29T17:43:23.861Z,57.90
2022-07-29T17:46:12.731Z,58.00
2022-07-29T17:49:00.564Z,58.00
2022-07-29T17:51:48.346Z,58.20
2022-07-29T17:54:36.006Z,58.80
2022-07-29T17:57:23.724Z,58.90
2022-07-29T18:00:11.741Z,59.20
2022-07-29T18:02:59.605Z,59.20
2022-07-29T18:05:47.384Z,59.70
2022-07-29T18:08:35.263Z,59.70
2022-07-29T18:11:23.592Z,59.80
2022-07-29T18:14:11.381Z,59.50
2022-07-29T18:16:59.345Z,60.10
2022-07-29T18:24:20.525Z,60.30
2022-07-29T18:27:08.296Z,60.50
2022-07-29T18:29:56.155Z,60.90
2022-07-29T18:32:59.073Z,61.50
2022-07-29T18:36:10.634Z,61.70
2022-07-29T18:38:59.357Z,61.80
2022-07-29T18:41:50.174Z,62.20
2022-07-29T18:44:43.506Z,62.40
2022-07-29T18:47:32.122Z,62.20
2022-07-29T18:50:20.736Z,61.80
2022-07-29T18:53:08.749Z,61.70
2022-07-29T18:56:00.269Z,61.70
2022-07-29T18:58:48.144Z,61.60
2022-07-29T19:01:37.090Z,61.50
2022-07-29T19:04:24.888Z,61.30
2022-07-29T19:07:12.542Z,61.30
2022-07-29T19:10:00.336Z,61.50
2022-07-29T19:12:48.020Z,61.60
2022-07-29T19:15:35.732Z,61.90
2022-07-29T19:18:23.350Z,62.20
2022-07-29T19:21:11.419Z,62.50
2022-07-29T19:24:06.113Z,62.30
2022-07-29T19:26:57.471Z,61.90
2022-07-29T19:29:45.987Z,61.70
2022-07-29T19:32:33.753Z,61.50
2022-07-29T19:35:33.259Z,61.30
2022-07-29T19:38:21.180Z,61.00
2022-07-29T19:41:08.828Z,61.20
2022-07-29T19:43:56.668Z,62.50
2022-07-29T19:46:45.521Z,62.80
2022-07-29T19:49:37.292Z,62.50
2022-07-29T19:52:24.935Z,61.90
2022-07-29T19:55:12.966Z,62.00
2022-07-29T19:58:02.505Z,62.30
2022-07-29T20:00:53.124Z,64.20
2022-07-29T20:03:40.817Z,66.00
2022-07-29T20:06:28.600Z,66.30
2022-07-29T20:09:16.807Z,66.00
2022-07-29T20:12:11.882Z,65.40
2022-07-29T20:15:00.944Z,64.80
2022-07-29T20:17:48.627Z,64.40
2022-07-29T20:20:36.323Z,64.00
2022-07-29T20:23:24.084Z,63.80
2022-07-29T20:26:12.235Z,63.70
2022-07-29T20:29:00.565Z,63.60
2022-07-29T20:31:52.236Z,64.40
2022-07-29T20:34:44.813Z,64.90
2022-07-29T20:37:33.018Z,64.80
2022-07-29T20:40:40.289Z,64.80
2022-07-29T20:43:27.962Z,64.50
2022-07-29T20:46:16.255Z,64.20
2022-07-29T20:49:04.297Z,64.30
2022-07-29T20:51:52.077Z,64.30
2022-07-29T20:54:40.032Z,64.80
2022-07-29T20:57:39.485Z,66.80
2022-07-29T21:00:28.883Z,67.80
2022-07-29T21:03:18.473Z,67.20
2022-07-29T21:06:08.161Z,66.60
2022-07-29T21:08:58.151Z,66.40
2022-07-29T21:11:46.234Z,65.90
2022-07-29T21:14:37.308Z,65.40
2022-07-29T21:17:25.508Z,65.00
2022-07-29T21:20:15.652Z,65.40
2022-07-29T21:23:03.484Z,66.60
2022-07-29T21:25:51.946Z,67.30
2022-07-29T21:28:43.669Z,67.60
2022-07-29T21:31:31.535Z,67.80
2022-07-29T21:34:19.151Z,67.20
2022-07-29T21:37:06.887Z,66.70
2022-07-29T21:39:56.183Z,69.30
2022-07-29T21:42:43.932Z,71.30
2022-07-29T21:45:33.632Z,70.50
2022-07-29T21:48:23.352Z,68.80
2022-07-29T21:51:11.084Z,68.00
2022-07-29T21:53:59.619Z,67.30
2022-07-29T21:56:51.042Z,68.00
2022-07-29T21:59:39.601Z,68.70
2022-07-29T22:02:27.462Z,68.60
2022-07-29T22:05:15.365Z,67.80
2022-07-29T22:08:04.200Z,68.10
2022-07-29T22:10:52.576Z,68.30
2022-07-29T22:13:41.714Z,68.00
2022-07-29T22:16:29.891Z,67.50
2022-07-29T22:19:18.135Z,66.60
2022-07-29T22:22:06.291Z,66.50
2022-07-29T22:24:53.932Z,66.40
2022-07-29T22:27:41.940Z,67.70
2022-07-29T22:30:30.361Z,67.70
2022-07-29T22:33:18.306Z,67.40
2022-07-29T22:36:13.092Z,67.20
2022-07-29T22:39:01.010Z,66.90
2022-07-29T22:41:48.968Z,66.30
2022-07-29T22:44:37.069Z,66.10
2022-07-29T22:47:46.081Z,66.40
2022-07-29T22:50:33.185Z,66.20
2022-07-29T22:53:23.712Z,66.00
2022-07-29T22:56:11.565Z,65.90
2022-07-29T22:58:59.314Z,66.00
2022-07-29T23:01:47.102Z,65.30
2022-07-29T23:04:42.394Z,65.30
2022-07-29T23:08:33.015Z,65.60
2022-07-29T23:11:20.656Z,65.30
2022-07-29T23:14:09.471Z,65.30
2022-07-29T23:16:57.365Z,65.10
2022-07-29T23:19:45.328Z,65.50
2022-07-29T23:22:33.133Z,67.50
2022-07-29T23:25:20.854Z,68.80
2022-07-29T23:28:12.235Z,69.70
2022-07-29T23:35:31.554Z,69.00
2022-07-29T23:38:19.282Z,68.30
2022-07-29T23:41:09.898Z,68.00
2022-07-29T23:43:58.084Z,68.00
2022-07-29T23:46:45.951Z,69.80
2022-07-29T23:49:34.741Z,70.30
2022-07-29T23:52:22.584Z,70.00
2022-07-29T23:55:36.876Z,69.60
2022-07-29T23:58:21.379Z,69.20
